createdAt,value
2018-12-07T00:00:06.601Z,11.20
2018-12-07T00:02:47.777Z,11.20
2018-12-07T00:11:27.633Z,11.40
2018-12-07T00:17:07.927Z,11.40
2018-12-07T00:19:48.080Z,11.30
2018-12-07T00:22:31.214Z,11.30
2018-12-07T00:25:11.959Z,11.30
2018-12-07T00:27:48.771Z,11.30
2018-12-07T00:30:30.668Z,11.30
2018-12-07T00:33:07.227Z,11.30
2018-12-07T00:35:55.083Z,11.30
2018-12-07T00:38:36.655Z,11.30
2018-12-07T00:41:19.642Z,11.30
2018-12-07T00:46:57.870Z,11.30
2018-12-07T00:49:45.086Z,11.30
2018-12-07T00:52:23.969Z,11.30
2018-12-07T00:55:01.649Z,11.30
2018-12-07T00:57:42.833Z,11.30
2018-12-07T01:00:24.127Z,11.30
2018-12-07T01:06:07.766Z,11.30
2018-12-07T01:08:54.096Z,11.30
2018-12-07T01:11:32.779Z,11.30
2018-12-07T01:14:13.030Z,11.30
2018-12-07T01:16:51.786Z,11.30
2018-12-07T01:19:28.532Z,11.30
2018-12-07T01:22:06.443Z,11.30
2018-12-07T01:24:51.087Z,11.30
2018-12-07T01:27:29.257Z,11.30
2018-12-07T01:33:08.705Z,11.20
2018-12-07T01:38:38.417Z,11.20
2018-12-07T01:41:19.820Z,11.20
2018-12-07T01:43:57.650Z,11.20
2018-12-07T01:46:42.527Z,11.20
2018-12-07T01:49:21.319Z,11.20
2018-12-07T01:52:06.321Z,11.20
2018-12-07T01:54:46.941Z,11.30
2018-12-07T01:57:26.210Z,11.30
2018-12-07T02:00:02.618Z,11.30
2018-12-07T02:02:38.821Z,11.30
2018-12-07T02:05:16.691Z,11.30
2018-12-07T02:07:53.550Z,11.40
2018-12-07T02:10:34.722Z,11.40
2018-12-07T02:16:22.047Z,11.40
2018-12-07T02:19:03.099Z,11.40
2018-12-07T02:21:45.147Z,11.40
2018-12-07T02:24:21.703Z,11.40
2018-12-07T02:27:02.325Z,11.50
2018-12-07T02:29:40.958Z,11.50
2018-12-07T02:32:16.914Z,11.50
2018-12-07T02:37:45.515Z,11.50
2018-12-07T02:40:30.527Z,11.50
2018-12-07T02:43:07.427Z,11.50
2018-12-07T02:48:45.247Z,11.40
2018-12-07T02:51:22.007Z,11.40
2018-12-07T02:53:58.759Z,11.40
2018-12-07T02:56:36.908Z,11.40
2018-12-07T02:59:12.922Z,11.40
2018-12-07T03:01:50.834Z,11.40
2018-12-07T03:04:31.281Z,11.40
2018-12-07T03:07:09.822Z,11.40
2018-12-07T03:12:47.377Z,11.40
2018-12-07T03:15:24.195Z,11.40
2018-12-07T03:18:05.026Z,11.40
2018-12-07T03:20:43.217Z,11.50
2018-12-07T03:23:19.475Z,11.50
2018-12-07T03:25:55.172Z,11.40
2018-12-07T03:28:34.390Z,11.50
2018-12-07T03:31:11.815Z,11.50
2018-12-07T03:33:49.862Z,11.50
2018-12-07T03:36:34.973Z,11.50
2018-12-07T03:39:20.009Z,11.50
2018-12-07T03:41:58.364Z,11.50
2018-12-07T03:47:38.866Z,11.40
2018-12-07T03:50:23.070Z,11.40
2018-12-07T03:52:59.727Z,11.40
2018-12-07T03:55:44.646Z,11.40
2018-12-07T03:58:25.063Z,11.40
2018-12-07T04:01:04.753Z,11.40
2018-12-07T04:03:41.923Z,11.40
2018-12-07T04:06:20.875Z,11.40
2018-12-07T04:08:57.593Z,11.40
2018-12-07T04:11:34.340Z,11.40
2018-12-07T04:14:12.447Z,11.40
2018-12-07T04:22:36.709Z,11.50
2018-12-07T04:25:17.051Z,11.50
2018-12-07T04:27:57.567Z,11.50
2018-12-07T04:30:38.488Z,11.60
2018-12-07T04:36:18.918Z,11.60
2018-12-07T04:38:56.408Z,11.60
2018-12-07T04:41:32.965Z,11.60
2018-12-07T04:44:09.914Z,11.50
2018-12-07T04:46:46.390Z,11.50
2018-12-07T04:49:25.539Z,11.50
2018-12-07T04:55:04.282Z,11.40
2018-12-07T04:57:57.163Z,11.40
2018-12-07T05:00:38.116Z,11.40
2018-12-07T05:03:15.975Z,11.30
2018-12-07T05:05:54.051Z,11.30
2018-12-07T05:08:31.004Z,11.20
2018-12-07T05:14:17.553Z,11.20
2018-12-07T05:16:50.306Z,11.10
2018-12-07T05:19:26.720Z,11.10
2018-12-07T05:21:58.716Z,11.10
2018-12-07T05:24:30.279Z,11.10
2018-12-07T05:27:03.358Z,11.00
2018-12-07T05:29:38.009Z,11.10
2018-12-07T05:32:13.847Z,11.10
2018-12-07T05:34:47.989Z,11.10
2018-12-07T05:37:20.539Z,11.10
2018-12-07T05:39:57.786Z,11.10
2018-12-07T05:42:30.090Z,11.10
2018-12-07T05:45:02.275Z,11.10
2018-12-07T05:47:34.306Z,11.10
2018-12-07T05:50:06.174Z,11.10
2018-12-07T05:52:38.273Z,11.10
2018-12-07T05:55:10.294Z,11.10
2018-12-07T05:57:45.050Z,11.10
2018-12-07T06:00:17.818Z,11.10
2018-12-07T06:02:52.429Z,11.10
2018-12-07T06:05:28.448Z,11.10
2018-12-07T06:08:03.222Z,11.10
2018-12-07T06:10:36.212Z,11.20
2018-12-07T06:13:08.332Z,11.20
2018-12-07T06:15:42.876Z,11.20
2018-12-07T06:18:17.698Z,11.20
2018-12-07T06:20:48.647Z,11.20
2018-12-07T06:23:24.164Z,11.30
2018-12-07T06:25:58.255Z,11.30
2018-12-07T06:28:32.374Z,11.30
2018-12-07T06:31:05.254Z,11.30
2018-12-07T06:33:37.678Z,11.30
2018-12-07T06:36:16.015Z,11.30
2018-12-07T06:38:52.751Z,11.30
2018-12-07T06:41:24.395Z,11.30
2018-12-07T06:43:56.585Z,11.30
2018-12-07T06:46:31.084Z,11.30
2018-12-07T06:49:22.822Z,11.30
2018-12-07T06:51:54.495Z,11.30
2018-12-07T06:54:31.154Z,11.20
2018-12-07T06:57:03.121Z,11.20
2018-12-07T06:59:37.588Z,11.20
2018-12-07T07:02:09.313Z,11.10
2018-12-07T07:04:41.323Z,11.10
2018-12-07T07:07:13.255Z,11.10
2018-12-07T07:09:45.416Z,11.10
2018-12-07T07:12:17.422Z,11.10
2018-12-07T07:14:49.430Z,11.10
2018-12-07T07:17:23.613Z,11.00
2018-12-07T07:19:55.875Z,11.00
2018-12-07T07:22:28.017Z,11.10
2018-12-07T07:24:59.976Z,11.10
2018-12-07T07:27:34.069Z,11.00
2018-12-07T07:30:08.412Z,11.10
2018-12-07T07:32:43.296Z,11.00
2018-12-07T07:35:18.222Z,11.00
2018-12-07T07:37:52.897Z,11.00
2018-12-07T07:40:25.339Z,11.10
2018-12-07T07:42:57.660Z,11.00
2018-12-07T07:45:32.717Z,11.10
2018-12-07T07:48:09.406Z,11.10
2018-12-07T07:50:44.790Z,11.10
2018-12-07T07:53:18.931Z,11.10
2018-12-07T07:55:51.293Z,11.00
2018-12-07T07:58:23.102Z,11.10
2018-12-07T08:00:58.157Z,11.10
2018-12-07T08:03:33.378Z,11.10
2018-12-07T08:06:08.257Z,11.20
2018-12-07T08:08:44.993Z,11.30
2018-12-07T08:11:19.534Z,11.30
2018-12-07T08:13:49.493Z,11.40
2018-12-07T08:16:23.858Z,11.40
2018-12-07T08:18:58.864Z,11.30
2018-12-07T08:21:30.374Z,11.40
2018-12-07T08:24:05.208Z,11.40
2018-12-07T08:26:39.589Z,11.50
2018-12-07T08:29:14.342Z,11.60
2018-12-07T08:31:46.516Z,11.60
2018-12-07T08:34:21.178Z,11.60
2018-12-07T08:36:55.061Z,11.60
2018-12-07T08:39:30.851Z,11.60
2018-12-07T08:42:06.875Z,11.60
2018-12-07T08:44:38.693Z,11.50
2018-12-07T08:47:11.472Z,11.50
2018-12-07T08:49:49.058Z,11.40
2018-12-07T08:52:24.261Z,11.50
2018-12-07T08:54:56.345Z,11.40
2018-12-07T08:57:28.833Z,11.50
2018-12-07T09:00:00.834Z,11.60
2018-12-07T09:02:35.223Z,11.60
2018-12-07T09:05:09.744Z,11.60
2018-12-07T09:07:42.744Z,11.60
2018-12-07T09:10:18.124Z,11.60
2018-12-07T09:12:54.202Z,11.60
2018-12-07T09:15:25.870Z,11.70
2018-12-07T09:18:00.099Z,11.60
2018-12-07T09:20:38.191Z,11.70
2018-12-07T09:23:10.670Z,11.70
2018-12-07T09:25:45.238Z,11.70
2018-12-07T09:28:17.636Z,11.70
2018-12-07T09:30:49.450Z,11.70
2018-12-07T09:33:26.789Z,11.70
2018-12-07T09:35:58.849Z,11.70
2018-12-07T09:38:33.028Z,11.70
2018-12-07T09:41:05.820Z,11.70
2018-12-07T09:43:40.715Z,11.60
2018-12-07T09:46:16.422Z,11.70
2018-12-07T09:48:48.339Z,11.70
2018-12-07T09:51:22.721Z,11.70
2018-12-07T09:53:54.863Z,11.70
2018-12-07T09:56:26.662Z,11.70
2018-12-07T09:58:58.682Z,11.70
2018-12-07T10:01:33.155Z,11.70
2018-12-07T10:04:03.903Z,11.70
2018-12-07T10:06:38.324Z,11.70
2018-12-07T10:09:08.918Z,11.70
2018-12-07T10:11:48.069Z,11.80
2018-12-07T10:14:24.682Z,11.90
2018-12-07T10:16:59.211Z,12.00
2018-12-07T10:19:30.181Z,11.90
2018-12-07T10:22:00.622Z,11.90
2018-12-07T10:24:35.090Z,11.90
2018-12-07T10:27:09.672Z,11.80
2018-12-07T10:29:44.289Z,11.90
2018-12-07T10:32:21.866Z,11.90
2018-12-07T10:34:57.282Z,11.90
2018-12-07T10:37:34.375Z,12.00
2018-12-07T10:40:05.688Z,12.00
2018-12-07T10:42:37.936Z,12.10
2018-12-07T10:45:10.475Z,12.20
2018-12-07T10:47:50.014Z,12.20
2018-12-07T10:50:16.632Z,12.10
2018-12-07T10:52:50.745Z,12.20
2018-12-07T10:55:23.355Z,12.10
2018-12-07T10:57:57.587Z,12.00
2018-12-07T11:02:38.149Z,12.00
2018-12-07T11:05:28.275Z,12.10
2018-12-07T11:08:05.457Z,12.20
2018-12-07T11:10:41.245Z,12.30
2018-12-07T11:13:16.056Z,12.10
2018-12-07T11:15:55.136Z,12.00
2018-12-07T11:21:30.798Z,12.50
2018-12-07T11:24:06.219Z,12.80
2018-12-07T11:26:45.306Z,13.00
2018-12-07T11:31:56.853Z,12.90
2018-12-07T11:34:37.144Z,12.80
2018-12-07T11:37:11.940Z,12.60
2018-12-07T11:39:46.706Z,12.90
2018-12-07T11:42:19.682Z,13.00
2018-12-07T11:44:54.787Z,13.00
2018-12-07T11:47:30.563Z,13.10
2018-12-07T11:50:03.094Z,13.10
2018-12-07T11:52:37.351Z,12.70
2018-12-07T11:55:10.150Z,12.60
2018-12-07T11:57:42.059Z,12.50
2018-12-07T12:00:14.755Z,12.50
2018-12-07T12:02:50.346Z,12.40
2018-12-07T12:05:24.916Z,12.40
2018-12-07T12:07:59.667Z,12.30
2018-12-07T12:10:34.264Z,12.40
2018-12-07T12:13:08.159Z,12.30
2018-12-07T12:15:40.694Z,12.10
2018-12-07T12:18:10.522Z,12.00
2018-12-07T12:20:45.683Z,11.80
2018-12-07T12:23:19.838Z,11.70
2018-12-07T12:25:54.534Z,11.80
2018-12-07T12:28:30.468Z,11.70
2018-12-07T12:31:02.916Z,11.60
2018-12-07T12:33:35.596Z,11.60
2018-12-07T12:36:08.099Z,11.60
2018-12-07T12:38:38.430Z,11.60
2018-12-07T12:41:12.643Z,11.60
2018-12-07T12:43:46.558Z,11.50
2018-12-07T12:46:19.189Z,11.50
2018-12-07T12:48:52.161Z,11.40
2018-12-07T12:51:26.611Z,11.40
2018-12-07T12:53:57.964Z,11.40
2018-12-07T12:56:32.125Z,11.40
2018-12-07T12:59:08.011Z,11.40
2018-12-07T13:01:38.634Z,11.40
2018-12-07T13:04:10.647Z,11.40
2018-12-07T13:06:42.765Z,11.50
2018-12-07T13:09:14.559Z,11.40
2018-12-07T13:11:48.521Z,11.30
2018-12-07T13:14:23.017Z,11.30
2018-12-07T13:16:57.141Z,11.40
2018-12-07T13:19:28.789Z,11.30
2018-12-07T13:22:00.583Z,11.10
2018-12-07T13:24:32.552Z,11.20
2018-12-07T13:27:06.954Z,11.20
2018-12-07T13:29:38.717Z,11.10
2018-12-07T13:32:10.636Z,11.10
2018-12-07T13:34:43.397Z,11.10
2018-12-07T13:37:13.737Z,11.10
2018-12-07T13:39:45.588Z,11.20
2018-12-07T13:42:15.549Z,11.20
2018-12-07T13:44:50.013Z,11.20
2018-12-07T13:47:21.026Z,11.20
2018-12-07T13:49:57.535Z,11.20
2018-12-07T13:52:28.666Z,11.30
2018-12-07T13:55:04.174Z,11.40
2018-12-07T13:57:36.402Z,11.50
2018-12-07T14:00:09.648Z,11.60
2018-12-07T14:02:46.372Z,11.50
2018-12-07T14:05:16.979Z,11.50
2018-12-07T14:07:52.962Z,11.60
2018-12-07T14:10:27.053Z,11.70
2018-12-07T14:12:58.869Z,11.70
2018-12-07T14:15:30.664Z,11.70
2018-12-07T14:18:03.741Z,11.60
2018-12-07T14:20:36.512Z,11.50
2018-12-07T14:23:09.794Z,11.50
2018-12-07T14:25:42.097Z,11.40
2018-12-07T14:28:13.948Z,11.30
2018-12-07T14:30:48.238Z,11.20
2018-12-07T14:33:20.800Z,11.10
2018-12-07T14:35:57.214Z,11.10
2018-12-07T14:38:32.705Z,11.00
2018-12-07T14:41:07.090Z,10.90
2018-12-07T14:43:39.477Z,10.90
2018-12-07T14:46:11.178Z,10.80
2018-12-07T14:48:45.789Z,10.80
2018-12-07T14:51:20.511Z,10.70
2018-12-07T14:53:53.297Z,10.60
2018-12-07T14:56:25.542Z,10.50
2018-12-07T14:58:58.207Z,10.50
2018-12-07T15:01:32.826Z,10.50
2018-12-07T15:04:05.454Z,10.40
2018-12-07T15:06:39.684Z,10.40
2018-12-07T15:09:10.229Z,10.30
2018-12-07T15:11:44.689Z,10.30
2018-12-07T15:14:17.408Z,10.20
2018-12-07T15:16:49.250Z,10.10
2018-12-07T15:19:19.390Z,10.10
2018-12-07T15:21:51.593Z,10.10
2018-12-07T15:24:25.928Z,10.10
2018-12-07T15:26:56.463Z,10.10
2018-12-07T15:29:27.263Z,10.20
2018-12-07T15:32:02.207Z,10.20
2018-12-07T15:34:34.857Z,10.20
2018-12-07T15:37:08.973Z,10.20
2018-12-07T15:39:39.296Z,10.20
2018-12-07T15:42:12.062Z,10.30
2018-12-07T15:44:46.796Z,10.20
2018-12-07T15:47:19.118Z,10.20
2018-12-07T15:49:53.564Z,10.20
2018-12-07T15:52:28.364Z,10.20
2018-12-07T15:55:03.140Z,10.20
2018-12-07T15:57:38.058Z,10.20
2018-12-07T16:00:09.234Z,10.20
2018-12-07T16:02:41.810Z,10.20
2018-12-07T16:05:14.618Z,10.20
2018-12-07T16:07:48.874Z,10.20
2018-12-07T16:10:21.305Z,10.20
2018-12-07T16:12:55.967Z,10.20
2018-12-07T16:15:27.936Z,10.20
2018-12-07T16:17:58.424Z,10.10
2018-12-07T16:20:31.109Z,10.20
2018-12-07T16:23:03.354Z,10.10
2018-12-07T16:25:37.638Z,9.90
2018-12-07T16:28:12.092Z,9.90
2018-12-07T16:30:47.882Z,9.80
2018-12-07T16:33:20.490Z,9.80
2018-12-07T16:35:55.394Z,9.90
2018-12-07T16:38:27.963Z,10.00
2018-12-07T16:41:01.994Z,10.10
2018-12-07T16:43:32.460Z,10.10
2018-12-07T16:46:04.463Z,10.10
2018-12-07T16:48:39.224Z,10.20
2018-12-07T16:51:12.048Z,10.20
2018-12-07T16:53:44.026Z,10.20
2018-12-07T16:56:18.242Z,10.10
2018-12-07T16:58:51.751Z,10.20
2018-12-07T17:01:29.319Z,10.20
2018-12-07T17:04:04.400Z,10.10
2018-12-07T17:06:39.375Z,10.10
2018-12-07T17:09:14.921Z,10.10
2018-12-07T17:11:47.465Z,10.10
2018-12-07T17:14:19.389Z,10.00
2018-12-07T17:16:49.682Z,10.00
2018-12-07T17:19:24.894Z,10.00
2018-12-07T17:21:57.206Z,9.90
2018-12-07T17:24:27.871Z,9.90
2018-12-07T17:27:02.582Z,10.00
2018-12-07T17:29:37.376Z,10.00
2018-12-07T17:32:08.461Z,10.10
2018-12-07T17:34:40.745Z,10.20
2018-12-07T17:37:15.200Z,10.20
2018-12-07T17:39:48.013Z,10.20
2018-12-07T17:42:20.043Z,10.20
2018-12-07T17:44:54.380Z,10.20
2018-12-07T17:47:34.297Z,10.30
2018-12-07T17:50:11.195Z,10.30
2018-12-07T17:52:51.233Z,10.30
2018-12-07T17:55:30.007Z,10.40
2018-12-07T17:58:05.600Z,10.40
2018-12-07T18:00:45.982Z,10.40
2018-12-07T18:03:23.272Z,10.40
2018-12-07T18:06:00.183Z,10.30
2018-12-07T18:08:34.545Z,10.30
2018-12-07T18:11:12.114Z,10.30
2018-12-07T18:13:48.552Z,10.20
2018-12-07T18:16:23.107Z,10.00
2018-12-07T18:18:59.890Z,9.90
2018-12-07T18:21:35.583Z,9.80
2018-12-07T18:24:14.747Z,9.70
2018-12-07T18:26:51.852Z,9.70
2018-12-07T18:29:29.486Z,9.60
2018-12-07T18:32:03.762Z,9.70
2018-12-07T18:34:36.243Z,9.80
2018-12-07T18:37:11.297Z,9.90
2018-12-07T18:39:46.125Z,9.90
2018-12-07T18:42:21.158Z,9.90
2018-12-07T18:45:00.171Z,10.00
2018-12-07T18:47:36.824Z,10.10
2018-12-07T18:50:23.636Z,10.10
2018-12-07T18:53:02.865Z,10.10
2018-12-07T18:55:39.549Z,10.20
2018-12-07T18:58:18.187Z,10.20
2018-12-07T19:00:55.122Z,10.20
2018-12-07T19:06:27.142Z,10.10
2018-12-07T19:09:05.930Z,10.10
2018-12-07T19:11:44.487Z,10.00
2018-12-07T19:14:23.742Z,10.00
2018-12-07T19:17:06.212Z,9.90
2018-12-07T19:19:44.529Z,9.90
2018-12-07T19:22:30.820Z,9.80
2018-12-07T19:25:05.566Z,9.80
2018-12-07T19:27:57.226Z,9.60
2018-12-07T19:30:37.975Z,9.50
2018-12-07T19:33:14.160Z,9.30
2018-12-07T19:35:55.709Z,9.30
2018-12-07T19:38:34.663Z,9.20
2018-12-07T19:41:21.906Z,9.20
2018-12-07T19:44:01.736Z,9.20
2018-12-07T19:46:37.424Z,9.20
2018-12-07T19:58:16.468Z,9.40
2018-12-07T20:01:03.752Z,9.50
2018-12-07T20:03:39.155Z,9.50
2018-12-07T20:06:14.842Z,9.50
2018-12-07T20:08:46.649Z,9.40
2018-12-07T20:14:29.142Z,9.20
2018-12-07T20:17:01.911Z,9.20
2018-12-07T20:19:40.604Z,9.30
2018-12-07T20:22:25.827Z,9.30
2018-12-07T20:25:18.399Z,9.20
2018-12-07T20:27:57.058Z,9.20
2018-12-07T20:33:32.834Z,9.00
2018-12-07T20:36:11.832Z,8.80
2018-12-07T20:38:54.994Z,8.70
2018-12-07T20:41:29.680Z,8.70
2018-12-07T20:44:07.727Z,8.60
2018-12-07T20:46:46.248Z,8.40
2018-12-07T20:49:25.232Z,8.30
2018-12-07T20:52:01.146Z,8.10
2018-12-07T20:54:42.545Z,8.00
2018-12-07T20:57:14.977Z,7.80
2018-12-07T20:59:53.320Z,7.40
2018-12-07T21:02:28.021Z,7.10
2018-12-07T21:05:52.679Z,6.90
2018-12-07T21:08:42.578Z,6.70
2018-12-07T21:11:24.722Z,6.60
2018-12-07T21:14:05.921Z,6.50
2018-12-07T21:16:53.762Z,6.40
2018-12-07T21:19:33.051Z,6.30
2018-12-07T21:22:09.323Z,6.20
2018-12-07T21:24:45.305Z,6.20
2018-12-07T21:33:16.921Z,6.20
2018-12-07T21:36:12.714Z,6.30
2018-12-07T21:38:57.896Z,6.30
2018-12-07T21:44:45.107Z,6.30
2018-12-07T21:47:41.464Z,6.30
2018-12-07T21:50:19.877Z,6.30
2018-12-07T21:59:04.009Z,6.20
2018-12-07T22:01:47.146Z,6.20
2018-12-07T22:07:34.871Z,6.20
2018-12-07T22:10:11.979Z,6.20
2018-12-07T22:12:50.228Z,6.20
2018-12-07T22:15:31.523Z,6.20
2018-12-07T22:18:12.076Z,6.20
2018-12-07T22:20:54.066Z,6.20
2018-12-07T22:26:35.002Z,6.20
2018-12-07T22:29:11.924Z,6.20
2018-12-07T22:31:51.568Z,6.20
2018-12-07T22:34:37.042Z,6.20
2018-12-07T22:37:17.995Z,6.30
2018-12-07T22:39:56.414Z,6.30
2018-12-07T22:42:34.696Z,6.30
2018-12-07T22:45:13.987Z,6.20
2018-12-07T22:47:50.181Z,6.20
2018-12-07T22:50:32.742Z,6.10
2018-12-07T22:53:09.131Z,6.10
2018-12-07T22:55:49.677Z,6.10
2018-12-07T22:58:27.362Z,6.10
2018-12-07T23:01:08.255Z,6.30
2018-12-07T23:03:48.561Z,6.30
2018-12-07T23:06:25.240Z,6.30
2018-12-07T23:09:05.525Z,6.20
2018-12-07T23:11:52.275Z,6.20
2018-12-07T23:14:30.875Z,6.10
2018-12-07T23:17:11.445Z,6.10
2018-12-07T23:19:50.117Z,6.10
2018-12-07T23:22:31.270Z,6.00
2018-12-07T23:25:07.847Z,5.90
2018-12-07T23:27:48.457Z,5.90
2018-12-07T23:30:29.172Z,5.90
2018-12-07T23:33:09.865Z,5.90
2018-12-07T23:35:46.603Z,5.90
2018-12-07T23:38:27.719Z,5.80
2018-12-07T23:41:08.698Z,5.80
2018-12-07T23:43:55.905Z,5.70
2018-12-07T23:46:31.273Z,5.70
2018-12-07T23:49:07.588Z,5.60
2018-12-07T23:51:43.741Z,5.60
2018-12-07T23:57:33.505Z,5.50
